createdAt,value
2022-08-07T00:00:21.507Z,74
2022-08-07T00:05:26.004Z,73
2022-08-07T00:10:32.083Z,73
2022-08-07T00:15:21.021Z,72
2022-08-07T00:20:29.900Z,72
2022-08-07T00:25:17.227Z,72
2022-08-07T00:30:27.179Z,73
2022-08-07T00:35:29.970Z,74
2022-08-07T00:40:39.301Z,74
2022-08-07T00:45:23.424Z,75
2022-08-07T00:50:46.534Z,76
2022-08-07T00:55:25.339Z,77
2022-08-07T01:00:24.451Z,77
2022-08-07T01:05:31.862Z,77
2022-08-07T01:10:20.480Z,77
2022-08-07T01:16:00.593Z,78
2022-08-07T01:20:32.551Z,78
2022-08-07T01:25:39.935Z,80
2022-08-07T01:30:27.163Z,80
2022-08-07T01:35:36.889Z,80
2022-08-07T01:40:22.115Z,80
2022-08-07T01:45:37.142Z,81
2022-08-07T01:50:16.036Z,81
2022-08-07T01:55:24.146Z,81
2022-08-07T02:00:28.992Z,82
2022-08-07T02:05:47.751Z,82
2022-08-07T02:10:23.810Z,82
2022-08-07T02:15:30.010Z,82
2022-08-07T02:20:23.343Z,83
2022-08-07T02:26:10.618Z,83
2022-08-07T02:26:32.522Z,83
2022-08-07T02:30:32.444Z,83
2022-08-07T02:35:20.283Z,83
2022-08-07T02:36:28.479Z,83
2022-08-07T02:40:35.028Z,83
2022-08-07T02:45:58.438Z,84
2022-08-07T02:50:20.804Z,84
2022-08-07T02:55:27.484Z,84
2022-08-07T03:00:34.861Z,84
2022-08-07T03:05:23.088Z,84
2022-08-07T03:10:27.467Z,85
2022-08-07T03:15:16.438Z,85
2022-08-07T03:20:22.514Z,85
2022-08-07T03:25:32.520Z,85
2022-08-07T03:30:17.615Z,85
2022-08-07T03:35:26.044Z,85
2022-08-07T03:40:30.986Z,85
2022-08-07T03:45:30.153Z,86
2022-08-07T03:50:24.562Z,86
2022-08-07T03:55:42.784Z,86
2022-08-07T04:00:21.065Z,86
2022-08-07T04:05:39.769Z,86
2022-08-07T04:10:31.393Z,86
2022-08-07T04:15:20.863Z,86
2022-08-07T04:20:26.419Z,86
2022-08-07T04:25:39.510Z,86
2022-08-07T04:30:39.507Z,86
2022-08-07T04:35:34.994Z,85
2022-08-07T04:40:16.624Z,84
2022-08-07T04:45:22.885Z,83
2022-08-07T04:50:28.700Z,82
2022-08-07T04:58:15.999Z,81
2022-08-07T04:58:16.494Z,81
2022-08-07T04:58:27.885Z,81
2022-08-07T05:00:31.139Z,80
2022-08-07T05:05:53.255Z,79
2022-08-07T05:10:18.599Z,78
2022-08-07T05:15:24.578Z,77
2022-08-07T05:20:30.824Z,75
2022-08-07T05:25:25.519Z,75
2022-08-07T05:30:30.108Z,75
2022-08-07T05:35:33.332Z,73
2022-08-07T05:40:20.930Z,73
2022-08-07T05:45:47.407Z,72
2022-08-07T05:50:33.555Z,70
2022-08-07T05:55:22.858Z,69
2022-08-07T06:00:27.313Z,65
2022-08-07T06:05:16.687Z,64
2022-08-07T06:10:22.793Z,61
2022-08-07T06:15:39.353Z,59
2022-08-07T06:20:25.451Z,57
2022-08-07T06:25:23.882Z,57
2022-08-07T06:30:36.102Z,55
2022-08-07T06:35:19.009Z,54
2022-08-07T06:40:25.368Z,52
2022-08-07T06:45:31.231Z,52
2022-08-07T06:50:19.854Z,52
2022-08-07T06:55:32.465Z,51
2022-08-07T07:00:32.930Z,50
2022-08-07T07:06:02.481Z,50
2022-08-07T07:10:26.719Z,49
2022-08-07T07:15:37.672Z,49
2022-08-07T07:20:21.570Z,49
2022-08-07T07:26:33.002Z,48
2022-08-07T07:26:37.209Z,48
2022-08-07T07:30:32.529Z,48
2022-08-07T07:35:22.993Z,48
2022-08-07T07:40:28.845Z,48
2022-08-07T07:45:17.947Z,47
2022-08-07T07:50:33.642Z,46
2022-08-07T07:55:37.391Z,46
2022-08-07T08:00:29.850Z,45
2022-08-07T08:05:24.307Z,43
2022-08-07T08:10:37.773Z,43
2022-08-07T08:15:23.184Z,43
2022-08-07T08:20:31.922Z,42
2022-08-07T08:26:36.682Z,42
2022-08-07T08:27:20.386Z,42
2022-08-07T08:30:21.245Z,42
2022-08-07T08:35:28.946Z,41
2022-08-07T08:40:33.252Z,41
2022-08-07T08:45:21.769Z,41
2022-08-07T08:50:35.413Z,41
2022-08-07T08:55:21.006Z,40
2022-08-07T09:00:22.542Z,41
2022-08-07T09:05:36.907Z,41
2022-08-07T09:10:17.271Z,41
2022-08-07T09:16:24.060Z,41
2022-08-07T09:16:29.833Z,41
2022-08-07T09:20:35.566Z,41
2022-08-07T09:25:18.477Z,40
2022-08-07T09:30:27.932Z,41
2022-08-07T09:36:04.844Z,41
2022-08-07T09:40:20.785Z,40
2022-08-07T09:46:28.753Z,40
2022-08-07T09:47:51.688Z,40
2022-08-07T09:47:55.810Z,40
2022-08-07T09:50:31.281Z,40
2022-08-07T09:55:29.535Z,39
2022-08-07T10:00:29.948Z,38
2022-08-07T10:05:59.501Z,38
2022-08-07T10:10:22.734Z,37
2022-08-07T10:15:27.554Z,37
2022-08-07T10:20:21.882Z,36
2022-08-07T10:25:23.136Z,36
2022-08-07T10:30:28.673Z,36
2022-08-07T10:35:20.373Z,37
2022-08-07T10:40:30.058Z,37
2022-08-07T10:45:57.061Z,35
2022-08-07T10:50:18.865Z,35
2022-08-07T10:55:37.722Z,35
2022-08-07T11:00:39.240Z,36
2022-08-07T11:05:19.782Z,35
2022-08-07T11:10:25.733Z,34
2022-08-07T11:15:32.234Z,34
2022-08-07T11:20:24.658Z,35
2022-08-07T11:25:26.899Z,34
2022-08-07T11:30:41.740Z,34
2022-08-07T11:35:26.723Z,34
2022-08-07T11:40:28.185Z,33
2022-08-07T11:45:20.524Z,34
2022-08-07T11:50:32.338Z,33
2022-08-07T11:56:09.431Z,32
2022-08-07T12:00:21.199Z,32
2022-08-07T12:05:28.746Z,31
2022-08-07T12:10:30.975Z,31
2022-08-07T12:15:57.963Z,31
2022-08-07T12:20:30.463Z,30
2022-08-07T12:26:21.985Z,31
2022-08-07T12:30:23.510Z,31
2022-08-07T12:35:29.326Z,30
2022-08-07T12:40:44.042Z,30
2022-08-07T12:45:22.469Z,30
2022-08-07T12:50:39.619Z,30
2022-08-07T12:55:17.729Z,30
2022-08-07T13:00:32.586Z,29
2022-08-07T13:06:04.013Z,29
2022-08-07T13:10:28.376Z,29
2022-08-07T13:15:29.793Z,29
2022-08-07T13:20:30.243Z,28
2022-08-07T13:25:28.926Z,28
2022-08-07T13:30:40.030Z,28
2022-08-07T13:35:59.594Z,28
2022-08-07T13:40:35.450Z,27
2022-08-07T13:46:11.683Z,27
2022-08-07T13:50:59.948Z,27
2022-08-07T13:55:26.706Z,28
2022-08-07T14:00:27.354Z,29
2022-08-07T14:05:37.995Z,29
2022-08-07T14:10:28.282Z,28
2022-08-07T14:15:27.391Z,28
2022-08-07T14:20:42.099Z,28
2022-08-07T14:25:22.492Z,28
2022-08-07T14:30:33.085Z,27
2022-08-07T14:35:42.867Z,27
2022-08-07T14:40:27.601Z,28
2022-08-07T14:45:47.100Z,28
2022-08-07T14:50:18.684Z,27
2022-08-07T14:55:24.250Z,26
2022-08-07T15:00:30.995Z,27
2022-08-07T15:05:23.379Z,27
2022-08-07T15:10:26.904Z,27
2022-08-07T15:15:33.309Z,27
2022-08-07T15:20:32.692Z,27
2022-08-07T15:25:36.431Z,28
2022-08-07T15:30:32.875Z,27
2022-08-07T15:35:40.672Z,27
2022-08-07T15:40:34.120Z,28
2022-08-07T15:45:19.331Z,28
2022-08-07T15:52:03.117Z,29
2022-08-07T15:55:53.267Z,28
2022-08-07T16:00:32.064Z,29
2022-08-07T16:05:31.388Z,29
2022-08-07T16:10:31.090Z,29
2022-08-07T16:15:55.443Z,29
2022-08-07T16:20:33.505Z,29
2022-08-07T16:25:54.117Z,29
2022-08-07T16:30:31.178Z,30
2022-08-07T16:35:51.766Z,30
2022-08-07T16:40:34.907Z,30
2022-08-07T16:46:47.285Z,30
2022-08-07T16:47:08.721Z,30
2022-08-07T16:50:39.159Z,30
2022-08-07T16:55:16.628Z,30
2022-08-07T17:00:30.062Z,30
2022-08-07T17:06:02.009Z,30
2022-08-07T17:06:41.109Z,30
2022-08-07T17:10:32.833Z,30
2022-08-07T17:15:23.590Z,30
2022-08-07T17:20:30.759Z,31
2022-08-07T17:25:19.265Z,30
2022-08-07T17:30:26.833Z,30
2022-08-07T17:35:51.119Z,31
2022-08-07T17:40:19.934Z,31
2022-08-07T17:45:26.037Z,31
2022-08-07T17:50:33.309Z,31
2022-08-07T17:56:00.999Z,32
2022-08-07T18:00:27.460Z,32
2022-08-07T18:06:03.235Z,32
2022-08-07T18:10:29.053Z,33
2022-08-07T18:15:32.887Z,33
2022-08-07T18:21:09.469Z,33
2022-08-07T18:21:28.177Z,33
2022-08-07T18:25:39.351Z,34
2022-08-07T18:30:32.439Z,34
2022-08-07T18:35:17.430Z,35
2022-08-07T18:40:43.849Z,36
2022-08-07T18:45:40.124Z,36
2022-08-07T18:50:40.751Z,38
2022-08-07T18:55:40.835Z,39
2022-08-07T19:00:32.677Z,41
2022-08-07T19:05:19.332Z,42
2022-08-07T19:10:31.262Z,43
2022-08-07T19:16:04.274Z,45
2022-08-07T19:17:01.295Z,45
2022-08-07T19:20:29.621Z,47
2022-08-07T19:26:22.929Z,48
2022-08-07T19:26:39.577Z,48
2022-08-07T19:31:03.861Z,48
2022-08-07T19:32:07.815Z,48
2022-08-07T19:35:22.304Z,49
2022-08-07T19:40:31.237Z,49
2022-08-07T19:46:05.588Z,50
2022-08-07T19:50:45.277Z,51
2022-08-07T19:55:57.496Z,52
2022-08-07T20:00:28.213Z,53
2022-08-07T20:05:23.122Z,53
2022-08-07T20:10:35.527Z,53
2022-08-07T20:15:22.072Z,54
2022-08-07T20:20:24.187Z,54
2022-08-07T20:25:30.387Z,55
2022-08-07T20:30:21.979Z,56
2022-08-07T20:35:26.389Z,56
2022-08-07T20:40:34.538Z,57
2022-08-07T20:45:32.928Z,58
2022-08-07T20:46:32.252Z,58
2022-08-07T20:50:26.569Z,59
2022-08-07T20:55:35.923Z,60
2022-08-07T21:00:21.308Z,59
2022-08-07T21:05:50.919Z,60
2022-08-07T21:10:16.549Z,62
2022-08-07T21:15:22.341Z,62
2022-08-07T21:20:33.179Z,63
2022-08-07T21:25:17.619Z,64
2022-08-07T21:30:23.779Z,64
2022-08-07T21:35:34.809Z,64
2022-08-07T21:40:18.709Z,65
2022-08-07T21:46:08.386Z,65
2022-08-07T21:50:30.771Z,65
2022-08-07T21:55:28.203Z,66
2022-08-07T22:00:25.694Z,66
2022-08-07T22:05:45.489Z,66
2022-08-07T22:10:20.831Z,66
2022-08-07T22:16:39.588Z,67
2022-08-07T22:16:44.425Z,67
2022-08-07T22:20:33.805Z,68
2022-08-07T22:25:26.516Z,68
2022-08-07T22:30:28.088Z,69
2022-08-07T22:35:17.135Z,70
2022-08-07T22:40:23.218Z,71
2022-08-07T22:46:21.435Z,71
2022-08-07T22:47:02.621Z,71
2022-08-07T22:50:20.404Z,71
2022-08-07T22:55:30.293Z,71
2022-08-07T23:00:30.380Z,71
2022-08-07T23:06:07.243Z,72
2022-08-07T23:10:37.707Z,73
2022-08-07T23:16:06.957Z,73
2022-08-07T23:16:46.803Z,73
2022-08-07T23:20:20.406Z,74
2022-08-07T23:25:28.677Z,74
2022-08-07T23:30:38.524Z,74
2022-08-07T23:35:20.817Z,74
2022-08-07T23:40:26.910Z,75
2022-08-07T23:46:03.142Z,75
2022-08-07T23:50:21.938Z,76
2022-08-07T23:55:51.909Z,76
